Time;durP1;ratioP1;P1;durP2;ratioP2;P2;SDS_P1;SDS_P2;PMS_P1;PMS_P2;Temp;Humidity;BMP_temperature;BMP_pressure;BME280_temperature;BME280_humidity;BME280_pressure;Samples;Min_cycle;Max_cycle;Signal;HPM_P1;HPM_P2
2022/07/14 00:00:06;;;;;;;24.10;6.43;;;;;;;;;;4950739;29;20118;-52
2022/07/14 00:02:33;;;;;;;26.90;6.85;;;;;;;;;;4949679;29;20035;-51
2022/07/14 00:05:00;;;;;;;29.40;7.15;;;;;;;;;;4950846;29;20027;-49
2022/07/14 00:07:28;;;;;;;25.25;6.50;;;;;;;;;;4934451;29;20050;-51
2022/07/14 00:09:55;;;;;;;39.33;7.43;;;;;;;;;;4950608;29;20077;-48
2022/07/14 00:12:22;;;;;;;32.60;6.68;;;;;;;;;;4949809;29;20160;-48
2022/07/14 00:14:49;;;;;;;29.70;6.78;;;;;;;;;;4950440;29;20023;-48
2022/07/14 00:17:16;;;;;;;26.88;6.13;;;;;;;;;;4950725;29;20504;-49
2022/07/14 00:19:43;;;;;;;25.33;6.30;;;;;;;;;;4950111;29;20027;-53
2022/07/14 00:22:10;;;;;;;32.22;6.07;;;;;;;;;;4950523;29;20480;-50
2022/07/14 00:24:36;;;;;;;27.20;6.47;;;;;;;;;;4950565;29;20474;-55
2022/07/14 00:27:04;;;;;;;27.08;6.32;;;;;;;;;;4951246;29;20035;-48
2022/07/14 00:29:30;;;;;;;22.63;5.25;;;;;;;;;;4950120;29;20023;-49
2022/07/14 00:31:57;;;;;;;28.58;6.45;;;;;;;;;;4940594;29;20480;-50
2022/07/14 00:34:24;;;;;;;18.05;5.35;;;;;;;;;;4950755;29;20063;-49
2022/07/14 00:36:51;;;;;;;24.17;5.78;;;;;;;;;;4947440;29;20086;-52
2022/07/14 00:39:18;;;;;;;22.25;5.65;;;;;;;;;;4951908;29;20392;-49
2022/07/14 00:41:45;;;;;;;21.70;5.55;;;;;;;;;;4951092;29;20031;-53
2022/07/14 00:44:12;;;;;;;22.35;6.07;;;;;;;;;;4946112;29;20031;-50
2022/07/14 00:46:39;;;;;;;19.70;5.78;;;;;;;;;;4951709;29;20043;-52
2022/07/14 00:49:06;;;;;;;27.10;5.68;;;;;;;;;;4951840;29;20034;-47
2022/07/14 00:51:33;;;;;;;26.02;5.60;;;;;;;;;;4951590;29;20030;-49
2022/07/14 00:54:00;;;;;;;26.90;6.65;;;;;;;;;;4950385;29;20818;-47
2022/07/14 00:56:27;;;;;;;26.65;5.22;;;;;;;;;;4950394;29;20110;-51
2022/07/14 00:58:54;;;;;;;21.70;6.03;;;;;;;;;;4951827;29;20035;-48
2022/07/14 01:01:22;;;;;;;19.95;5.40;;;;;;;;;;4952631;28;20122;-49
2022/07/14 01:03:49;;;;;;;17.75;5.25;;;;;;;;;;4957947;28;20086;-47
2022/07/14 01:06:16;;;;;;;24.60;5.47;;;;;;;;;;4954010;29;20039;-50
2022/07/14 01:08:43;;;;;;;24.30;6.07;;;;;;;;;;4952986;28;20023;-49
2022/07/14 01:11:10;;;;;;;24.08;6.15;;;;;;;;;;4953114;29;20023;-50
2022/07/14 01:13:37;;;;;;;19.48;5.85;;;;;;;;;;4953319;29;20105;-50
2022/07/14 01:16:05;;;;;;;21.05;5.28;;;;;;;;;;4950225;29;20038;-53
2022/07/14 01:18:33;;;;;;;26.88;5.20;;;;;;;;;;4950890;29;20109;-52
2022/07/14 01:21:00;;;;;;;24.73;5.63;;;;;;;;;;4952056;29;20031;-50
2022/07/14 01:23:27;;;;;;;14.90;5.30;;;;;;;;;;4951959;29;20034;-51
2022/07/14 01:25:53;;;;;;;19.40;5.30;;;;;;;;;;4951747;29;20035;-49
2022/07/14 01:28:20;;;;;;;21.15;6.13;;;;;;;;;;4952045;29;20122;-56
2022/07/14 01:30:47;;;;;;;22.95;5.43;;;;;;;;;;4952527;29;20109;-52
2022/07/14 01:33:14;;;;;;;23.33;5.38;;;;;;;;;;4933845;29;20424;-50
2022/07/14 01:35:41;;;;;;;20.30;5.57;;;;;;;;;;4951503;29;20106;-51
2022/07/14 01:38:08;;;;;;;24.20;5.82;;;;;;;;;;4951673;29;20035;-53
2022/07/14 01:40:35;;;;;;;23.58;5.57;;;;;;;;;;4951369;29;20596;-52
2022/07/14 01:43:03;;;;;;;17.33;4.90;;;;;;;;;;4947578;29;20437;-51
2022/07/14 01:45:30;;;;;;;17.95;4.82;;;;;;;;;;4951613;29;20035;-47
2022/07/14 01:47:57;;;;;;;16.85;4.68;;;;;;;;;;4952202;29;20122;-50
2022/07/14 01:50:24;;;;;;;18.67;4.95;;;;;;;;;;4951394;29;20516;-50
2022/07/14 01:52:51;;;;;;;20.40;5.28;;;;;;;;;;4951741;29;20556;-50
2022/07/14 01:55:18;;;;;;;22.00;5.22;;;;;;;;;;4950984;29;20073;-50
2022/07/14 01:57:45;;;;;;;17.67;5.38;;;;;;;;;;4952536;29;20462;-51
2022/07/14 02:00:12;;;;;;;19.10;5.00;;;;;;;;;;4951724;29;20123;-53
2022/07/14 02:02:39;;;;;;;19.95;4.95;;;;;;;;;;4951713;29;20118;-47
2022/07/14 02:05:09;;;;;;;22.80;5.38;;;;;;;;;;4952792;29;20027;-50
2022/07/14 02:07:36;;;;;;;21.95;4.35;;;;;;;;;;4955776;28;20035;-50
2022/07/14 02:12:48;;;;;;;26.17;5.20;;;;;;;;;;4950299;29;20070;-47
2022/07/14 02:15:15;;;;;;;19.02;5.00;;;;;;;;;;4949416;29;20042;-53
2022/07/14 02:17:42;;;;;;;28.98;4.80;;;;;;;;;;4950681;29;20027;-54
2022/07/14 02:20:10;;;;;;;20.35;5.00;;;;;;;;;;4953376;28;20035;-51
2022/07/14 02:22:37;;;;;;;19.88;4.75;;;;;;;;;;4952022;29;20046;-55
2022/07/14 02:25:04;;;;;;;21.50;5.18;;;;;;;;;;4953667;29;20095;-56
2022/07/14 02:27:31;;;;;;;29.52;5.45;;;;;;;;;;4951310;29;20093;-53
2022/07/14 02:29:59;;;;;;;20.48;5.22;;;;;;;;;;4953094;29;20031;-54
2022/07/14 02:32:29;;;;;;;16.38;4.38;;;;;;;;;;4953607;29;20027;-50
2022/07/14 02:34:56;;;;;;;17.58;4.70;;;;;;;;;;4953914;29;20035;-54
2022/07/14 02:37:23;;;;;;;19.58;5.07;;;;;;;;;;4953968;29;20050;-52
2022/07/14 02:39:50;;;;;;;17.00;4.90;;;;;;;;;;4954505;29;20102;-52
2022/07/14 02:42:17;;;;;;;19.65;4.78;;;;;;;;;;4953622;29;20024;-52
2022/07/14 02:44:44;;;;;;;15.27;4.38;;;;;;;;;;4954214;29;20019;-49
2022/07/14 02:47:11;;;;;;;17.63;4.28;;;;;;;;;;4953594;29;20126;-55
2022/07/14 02:49:38;;;;;;;16.25;4.82;;;;;;;;;;4950637;29;20063;-55
2022/07/14 02:52:05;;;;;;;20.80;4.28;;;;;;;;;;4951510;29;20027;-54
2022/07/14 02:54:32;;;;;;;20.08;4.90;;;;;;;;;;4953359;29;20058;-53
2022/07/14 02:56:59;;;;;;;13.35;4.22;;;;;;;;;;4953578;29;20027;-53
2022/07/14 02:59:26;;;;;;;13.55;3.72;;;;;;;;;;4954098;29;20032;-55
2022/07/14 03:01:53;;;;;;;9.82;3.70;;;;;;;;;;4953701;29;20039;-53
2022/07/14 03:04:20;;;;;;;14.02;4.07;;;;;;;;;;4953320;29;20369;-54
2022/07/14 03:06:47;;;;;;;18.10;4.50;;;;;;;;;;4953851;29;20042;-54
2022/07/14 03:09:14;;;;;;;11.88;4.15;;;;;;;;;;4953559;29;20055;-52
2022/07/14 03:11:41;;;;;;;17.00;3.65;;;;;;;;;;4954037;29;20019;-55
2022/07/14 03:14:08;;;;;;;17.27;3.90;;;;;;;;;;4953279;29;20051;-54
2022/07/14 03:16:35;;;;;;;12.70;3.80;;;;;;;;;;4953343;29;20057;-51
2022/07/14 03:19:02;;;;;;;12.00;3.35;;;;;;;;;;4952933;29;20027;-54
2022/07/14 03:21:29;;;;;;;13.38;3.83;;;;;;;;;;4952980;29;20549;-53
2022/07/14 03:23:56;;;;;;;11.23;3.53;;;;;;;;;;4953166;29;20120;-55
2022/07/14 03:26:23;;;;;;;12.95;3.30;;;;;;;;;;4953836;29;20090;-56
2022/07/14 03:28:50;;;;;;;11.80;3.45;;;;;;;;;;4952731;29;20090;-50
2022/07/14 03:31:16;;;;;;;11.40;3.92;;;;;;;;;;4954559;28;20027;-53
2022/07/14 03:33:43;;;;;;;8.35;3.40;;;;;;;;;;4959468;29;20070;-54
2022/07/14 03:36:10;;;;;;;9.45;3.30;;;;;;;;;;4960536;29;20027;-53
2022/07/14 03:38:37;;;;;;;9.60;3.50;;;;;;;;;;4959567;29;20082;-51
2022/07/14 03:41:05;;;;;;;9.20;3.28;;;;;;;;;;4960111;29;20068;-54
2022/07/14 03:43:32;;;;;;;13.52;3.78;;;;;;;;;;4959906;29;20027;-51
2022/07/14 03:46:00;;;;;;;11.82;3.45;;;;;;;;;;4959684;28;20039;-55
2022/07/14 03:48:27;;;;;;;9.05;3.65;;;;;;;;;;4959529;29;20077;-52
2022/07/14 03:50:54;;;;;;;8.13;2.83;;;;;;;;;;4960191;28;20023;-53
2022/07/14 03:53:21;;;;;;;8.35;2.60;;;;;;;;;;4960033;28;20150;-55
2022/07/14 03:55:48;;;;;;;12.25;3.05;;;;;;;;;;4959531;28;20036;-54
2022/07/14 03:58:15;;;;;;;7.43;3.22;;;;;;;;;;4942992;29;20031;-50
2022/07/14 04:00:42;;;;;;;10.10;3.78;;;;;;;;;;4942105;29;20552;-50
2022/07/14 04:03:11;;;;;;;8.63;2.80;;;;;;;;;;4960054;29;20035;-53
2022/07/14 04:05:38;;;;;;;8.38;2.97;;;;;;;;;;4960078;29;20078;-55
2022/07/14 04:08:05;;;;;;;9.18;2.95;;;;;;;;;;4959428;28;20122;-51
2022/07/14 04:10:32;;;;;;;6.32;3.10;;;;;;;;;;4960116;28;20038;-52
2022/07/14 04:12:59;;;;;;;10.25;3.30;;;;;;;;;;4958991;28;20106;-53
2022/07/14 04:15:28;;;;;;;10.55;2.78;;;;;;;;;;4959988;28;20046;-56
2022/07/14 04:17:56;;;;;;;8.80;2.80;;;;;;;;;;4959416;29;20371;-50
2022/07/14 04:20:23;;;;;;;7.30;3.08;;;;;;;;;;4959226;29;20027;-52
2022/07/14 04:22:51;;;;;;;6.10;2.88;;;;;;;;;;4959477;29;20028;-53
2022/07/14 04:25:18;;;;;;;6.07;2.67;;;;;;;;;;4959117;28;20107;-50
2022/07/14 04:27:45;;;;;;;8.90;2.75;;;;;;;;;;4959641;29;20145;-53
2022/07/14 04:30:13;;;;;;;6.05;2.97;;;;;;;;;;4959026;28;20103;-52
2022/07/14 04:32:40;;;;;;;7.05;2.90;;;;;;;;;;4959936;29;20035;-51
2022/07/14 04:35:07;;;;;;;6.22;2.50;;;;;;;;;;4959455;29;20034;-54
2022/07/14 04:37:34;;;;;;;6.30;2.78;;;;;;;;;;4959532;28;20035;-53
2022/07/14 04:40:02;;;;;;;4.68;2.42;;;;;;;;;;4959772;29;20024;-53
2022/07/14 04:42:30;;;;;;;6.93;2.63;;;;;;;;;;4958575;28;20110;-50
2022/07/14 04:44:57;;;;;;;5.70;2.70;;;;;;;;;;4955911;29;20446;-49
2022/07/14 04:47:24;;;;;;;6.85;2.80;;;;;;;;;;4956106;29;20126;-51
2022/07/14 04:52:36;;;;;;;5.72;2.45;;;;;;;;;;4956790;29;20038;-54
2022/07/14 04:55:03;;;;;;;5.85;2.63;;;;;;;;;;4955858;29;20565;-55
2022/07/14 04:57:30;;;;;;;5.68;2.72;;;;;;;;;;4956616;29;20043;-54
2022/07/14 04:59:57;;;;;;;6.18;2.40;;;;;;;;;;4955864;29;20528;-55
2022/07/14 05:02:24;;;;;;;6.03;2.67;;;;;;;;;;4956421;29;20043;-52
2022/07/14 05:04:51;;;;;;;6.07;2.45;;;;;;;;;;4955808;29;20055;-51
2022/07/14 05:07:18;;;;;;;4.03;2.45;;;;;;;;;;4956029;29;20035;-52
2022/07/14 05:09:45;;;;;;;5.97;2.70;;;;;;;;;;4956016;29;20054;-54
2022/07/14 05:12:15;;;;;;;4.22;2.00;;;;;;;;;;4955816;29;20023;-52
2022/07/14 05:14:43;;;;;;;6.32;2.30;;;;;;;;;;4955971;29;20109;-53
2022/07/14 05:17:10;;;;;;;8.27;2.60;;;;;;;;;;4955792;29;20081;-53
2022/07/14 05:19:37;;;;;;;6.80;2.22;;;;;;;;;;4956322;29;20028;-53
2022/07/14 05:22:04;;;;;;;4.15;2.30;;;;;;;;;;4955170;29;20042;-55
2022/07/14 05:24:31;;;;;;;5.25;2.33;;;;;;;;;;4955785;29;20023;-51
2022/07/14 05:26:59;;;;;;;6.57;2.38;;;;;;;;;;4955322;29;20058;-53
2022/07/14 05:29:26;;;;;;;4.35;2.58;;;;;;;;;;4956022;29;20433;-55
2022/07/14 05:31:53;;;;;;;4.90;2.42;;;;;;;;;;4955186;29;20042;-51
2022/07/14 05:34:21;;;;;;;4.75;2.00;;;;;;;;;;4955602;29;20023;-53
2022/07/14 05:36:48;;;;;;;7.78;2.47;;;;;;;;;;4955232;29;20043;-53
2022/07/14 05:39:15;;;;;;;4.22;2.13;;;;;;;;;;4955392;29;20430;-54
2022/07/14 05:41:42;;;;;;;4.85;2.05;;;;;;;;;;4955721;29;20031;-54
2022/07/14 05:44:09;;;;;;;6.40;2.10;;;;;;;;;;4955543;29;20027;-54
2022/07/14 05:46:36;;;;;;;3.55;2.17;;;;;;;;;;4954893;29;20031;-53
2022/07/14 05:49:04;;;;;;;3.17;2.10;;;;;;;;;;4955611;29;20441;-52
2022/07/14 05:51:31;;;;;;;3.58;2.00;;;;;;;;;;4954074;29;20051;-54
2022/07/14 05:53:57;;;;;;;4.10;1.80;;;;;;;;;;4955425;28;20030;-55
2022/07/14 05:56:24;;;;;;;5.28;2.10;;;;;;;;;;4954867;29;20030;-51
2022/07/14 05:58:52;;;;;;;4.47;2.20;;;;;;;;;;4954932;29;20105;-55
2022/07/14 06:01:20;;;;;;;5.55;2.10;;;;;;;;;;4955316;29;20061;-55
2022/07/14 06:03:56;;;;;;;4.07;2.28;;;;;;;;;;4954987;29;20031;-54
2022/07/14 06:06:23;;;;;;;5.55;2.00;;;;;;;;;;4954771;29;20409;-51
2022/07/14 06:08:50;;;;;;;4.75;2.25;;;;;;;;;;4954856;29;20116;-54
2022/07/14 06:11:18;;;;;;;3.58;2.03;;;;;;;;;;4955165;29;20557;-54
2022/07/14 06:13:45;;;;;;;4.50;2.13;;;;;;;;;;4954457;29;20051;-56
2022/07/14 06:16:13;;;;;;;3.13;2.00;;;;;;;;;;4954739;29;20393;-55
2022/07/14 06:18:39;;;;;;;6.00;2.15;;;;;;;;;;4954060;29;20031;-55
2022/07/14 06:21:10;;;;;;;3.42;1.80;;;;;;;;;;4955115;29;20090;-55
2022/07/14 06:23:37;;;;;;;4.18;1.85;;;;;;;;;;4954395;29;20062;-51
2022/07/14 06:26:11;;;;;;;3.83;2.03;;;;;;;;;;4954841;29;20035;-53
2022/07/14 06:28:38;;;;;;;5.55;2.20;;;;;;;;;;4953925;29;20470;-53
2022/07/14 06:31:05;;;;;;;3.22;1.98;;;;;;;;;;4954592;29;20034;-55
2022/07/14 06:33:32;;;;;;;3.38;1.67;;;;;;;;;;4954729;29;20031;-52
2022/07/14 06:35:59;;;;;;;3.67;1.90;;;;;;;;;;4937518;29;20454;-53
2022/07/14 06:38:26;;;;;;;6.47;1.88;;;;;;;;;;4954114;29;20047;-54
2022/07/14 06:40:53;;;;;;;3.10;1.80;;;;;;;;;;4953896;29;20125;-53
2022/07/14 06:43:21;;;;;;;4.30;1.80;;;;;;;;;;4954329;29;20031;-54
2022/07/14 06:45:48;;;;;;;3.80;1.70;;;;;;;;;;4954415;29;20047;-55
2022/07/14 06:48:15;;;;;;;3.15;1.52;;;;;;;;;;4953895;29;20027;-55
2022/07/14 06:50:42;;;;;;;4.22;1.90;;;;;;;;;;4954338;29;20047;-53
2022/07/14 06:53:10;;;;;;;2.85;1.75;;;;;;;;;;4954269;29;20023;-52
2022/07/14 06:55:36;;;;;;;3.70;1.58;;;;;;;;;;4954588;29;20027;-49
2022/07/14 06:58:04;;;;;;;3.25;1.45;;;;;;;;;;4953753;29;20030;-54
2022/07/14 07:00:31;;;;;;;5.57;1.67;;;;;;;;;;4954296;29;20105;-52
2022/07/14 07:02:58;;;;;;;3.40;1.60;;;;;;;;;;4953448;29;20023;-55
2022/07/14 07:08:10;;;;;;;4.18;1.70;;;;;;;;;;4953532;29;20046;-54
2022/07/14 07:10:40;;;;;;;2.22;1.50;;;;;;;;;;4953871;29;20039;-53
2022/07/14 07:13:10;;;;;;;4.32;1.50;;;;;;;;;;4953125;29;20454;-54
2022/07/14 07:15:40;;;;;;;3.40;1.80;;;;;;;;;;4953961;29;20490;-52
2022/07/14 07:18:08;;;;;;;2.47;1.30;;;;;;;;;;4953461;29;20556;-54
2022/07/14 07:20:35;;;;;;;3.28;1.63;;;;;;;;;;4954281;29;20027;-54
2022/07/14 07:23:03;;;;;;;3.22;1.50;;;;;;;;;;4953172;29;20504;-53
2022/07/14 07:25:30;;;;;;;3.40;1.80;;;;;;;;;;4954154;29;20038;-52
2022/07/14 07:27:57;;;;;;;3.97;1.90;;;;;;;;;;4954057;29;20122;-54
2022/07/14 07:30:24;;;;;;;2.28;1.33;;;;;;;;;;4953659;29;20426;-53
2022/07/14 07:32:51;;;;;;;3.85;1.58;;;;;;;;;;4953500;29;20484;-55
2022/07/14 07:35:18;;;;;;;2.25;1.60;;;;;;;;;;4953526;29;20034;-54
2022/07/14 07:37:45;;;;;;;3.60;1.58;;;;;;;;;;4953664;29;20031;-51
2022/07/14 07:40:12;;;;;;;2.63;1.52;;;;;;;;;;4953510;29;20027;-53
2022/07/14 07:42:40;;;;;;;2.92;1.60;;;;;;;;;;4952974;29;20085;-53
2022/07/14 07:45:08;;;;;;;3.20;1.70;;;;;;;;;;4953903;29;20035;-54
2022/07/14 07:47:35;;;;;;;1.88;1.50;;;;;;;;;;4953531;29;20046;-53
2022/07/14 07:50:02;;;;;;;3.25;1.55;;;;;;;;;;4953319;29;20043;-55
2022/07/14 07:52:29;;;;;;;1.92;1.40;;;;;;;;;;4953768;29;20038;-54
2022/07/14 07:54:56;;;;;;;3.00;1.60;;;;;;;;;;4952846;29;20027;-50
2022/07/14 07:57:23;;;;;;;2.58;1.70;;;;;;;;;;4953975;29;20030;-55
2022/07/14 07:59:50;;;;;;;2.67;1.40;;;;;;;;;;4953722;29;20020;-52
2022/07/14 08:02:17;;;;;;;5.78;1.70;;;;;;;;;;4953204;29;20031;-54
2022/07/14 08:04:44;;;;;;;2.67;1.52;;;;;;;;;;4953853;29;20115;-54
2022/07/14 08:07:11;;;;;;;2.08;1.50;;;;;;;;;;4953002;29;20041;-52
2022/07/14 08:09:38;;;;;;;1.80;1.40;;;;;;;;;;4953367;29;20031;-55
2022/07/14 08:12:05;;;;;;;2.72;1.40;;;;;;;;;;4936280;29;20690;-54
2022/07/14 08:17:18;;;;;;;2.78;1.50;;;;;;;;;;4953888;28;20118;-54
2022/07/14 08:19:45;;;;;;;2.65;1.40;;;;;;;;;;4956551;29;20500;-52
2022/07/14 08:22:12;;;;;;;2.50;1.40;;;;;;;;;;4957064;29;20075;-53
2022/07/14 08:24:39;;;;;;;3.10;1.48;;;;;;;;;;4956450;29;20049;-51
2022/07/14 08:27:06;;;;;;;3.22;1.67;;;;;;;;;;4957254;29;20035;-55
2022/07/14 08:29:33;;;;;;;2.25;1.42;;;;;;;;;;4956557;29;20394;-54
2022/07/14 08:32:00;;;;;;;2.03;1.40;;;;;;;;;;4956692;29;20511;-53
2022/07/14 08:34:27;;;;;;;2.15;1.30;;;;;;;;;;4956709;29;20532;-54
2022/07/14 08:36:54;;;;;;;1.95;1.20;;;;;;;;;;4957093;29;20050;-53
2022/07/14 08:39:21;;;;;;;3.22;1.27;;;;;;;;;;4956097;29;20047;-54
2022/07/14 08:41:49;;;;;;;2.03;1.40;;;;;;;;;;4956943;29;20051;-54
2022/07/14 08:44:16;;;;;;;2.80;1.30;;;;;;;;;;4956263;29;20028;-53
2022/07/14 08:46:43;;;;;;;2.67;1.50;;;;;;;;;;4956540;29;20043;-51
2022/07/14 08:49:10;;;;;;;2.00;1.60;;;;;;;;;;4956971;29;20051;-51
2022/07/14 08:51:40;;;;;;;3.05;1.48;;;;;;;;;;4955755;29;20393;-52
2022/07/14 08:54:09;;;;;;;1.98;1.30;;;;;;;;;;4956463;29;20035;-53
2022/07/14 08:56:42;;;;;;;2.92;1.27;;;;;;;;;;4956136;29;20054;-56
2022/07/14 08:59:10;;;;;;;2.55;1.30;;;;;;;;;;4956190;29;20031;-51
2022/07/14 09:01:37;;;;;;;2.83;1.50;;;;;;;;;;4955809;29;20070;-55
2022/07/14 09:04:04;;;;;;;2.17;1.20;;;;;;;;;;4956670;29;20501;-54
2022/07/14 09:06:43;;;;;;;2.15;1.40;;;;;;;;;;4955825;29;20568;-53
2022/07/14 09:09:10;;;;;;;1.88;1.23;;;;;;;;;;4956113;29;20038;-53
2022/07/14 09:11:37;;;;;;;1.67;1.27;;;;;;;;;;4955822;29;20041;-56
2022/07/14 09:14:10;;;;;;;1.98;1.35;;;;;;;;;;4955862;29;20055;-55
2022/07/14 09:16:38;;;;;;;1.95;1.40;;;;;;;;;;4955372;29;20071;-54
2022/07/14 09:19:09;;;;;;;1.90;1.30;;;;;;;;;;4956289;29;20031;-52
2022/07/14 09:21:37;;;;;;;3.85;1.40;;;;;;;;;;4955458;29;20027;-53
2022/07/14 09:24:08;;;;;;;3.15;1.33;;;;;;;;;;4955795;29;20035;-54
2022/07/14 09:26:45;;;;;;;2.13;1.30;;;;;;;;;;4955374;29;20094;-53
2022/07/14 09:29:18;;;;;;;1.83;1.25;;;;;;;;;;4954747;28;20397;-53
2022/07/14 09:31:45;;;;;;;1.88;1.20;;;;;;;;;;4955943;29;20035;-55
2022/07/14 09:34:24;;;;;;;3.17;1.60;;;;;;;;;;4955297;29;20027;-55
2022/07/14 09:36:51;;;;;;;2.42;1.40;;;;;;;;;;4955750;29;20054;-55
2022/07/14 09:39:18;;;;;;;2.05;1.25;;;;;;;;;;4955139;29;20031;-52
2022/07/14 09:41:53;;;;;;;2.00;1.40;;;;;;;;;;4954727;29;20039;-52
2022/07/14 09:44:21;;;;;;;1.70;1.20;;;;;;;;;;4955546;29;20031;-54
2022/07/14 09:46:54;;;;;;;1.73;1.23;;;;;;;;;;4955123;29;20039;-53
2022/07/14 09:49:31;;;;;;;2.85;1.63;;;;;;;;;;4955742;29;20090;-54
2022/07/14 09:51:59;;;;;;;2.95;1.60;;;;;;;;;;4954657;29;20035;-54
2022/07/14 09:54:38;;;;;;;2.50;1.40;;;;;;;;;;4955421;29;20058;-55
2022/07/14 09:57:11;;;;;;;2.33;1.40;;;;;;;;;;4955304;29;20059;-54
2022/07/14 09:59:48;;;;;;;1.77;1.30;;;;;;;;;;4955196;29;20067;-54
2022/07/14 10:02:21;;;;;;;2.15;1.55;;;;;;;;;;4954851;29;20042;-50
2022/07/14 10:04:49;;;;;;;2.03;1.25;;;;;;;;;;4954963;29;20031;-55
2022/07/14 10:07:17;;;;;;;3.67;1.75;;;;;;;;;;4955020;29;20054;-55
2022/07/14 10:09:55;;;;;;;2.55;1.63;;;;;;;;;;4955028;29;20031;-55
2022/07/14 10:12:22;;;;;;;3.63;1.67;;;;;;;;;;4955123;29;20176;-54
2022/07/14 10:14:50;;;;;;;2.70;1.30;;;;;;;;;;4954751;29;20042;-54
2022/07/14 10:17:17;;;;;;;2.20;1.48;;;;;;;;;;4954740;29;20027;-56
2022/07/14 10:19:45;;;;;;;1.90;1.40;;;;;;;;;;4955053;29;20038;-55
2022/07/14 10:22:13;;;;;;;2.60;1.63;;;;;;;;;;4954563;29;20031;-54
2022/07/14 10:24:41;;;;;;;2.70;1.52;;;;;;;;;;4954747;29;20479;-54
2022/07/14 10:27:08;;;;;;;3.80;1.55;;;;;;;;;;4954816;29;20045;-56
2022/07/14 10:29:35;;;;;;;2.97;1.75;;;;;;;;;;4936797;29;20062;-56
2022/07/14 10:32:14;;;;;;;2.80;1.63;;;;;;;;;;4954555;29;20460;-57
2022/07/14 10:34:51;;;;;;;3.03;1.75;;;;;;;;;;4954719;29;20647;-56
2022/07/14 10:37:45;;;;;;;2.67;1.70;;;;;;;;;;4954767;29;20027;-54
2022/07/14 10:40:31;;;;;;;1.90;1.27;;;;;;;;;;4954152;29;20385;-55
2022/07/14 10:43:11;;;;;;;2.30;1.63;;;;;;;;;;4953661;29;20023;-51
2022/07/14 10:45:48;;;;;;;2.20;1.50;;;;;;;;;;4954031;29;20031;-49
2022/07/14 10:48:35;;;;;;;2.25;1.70;;;;;;;;;;4954633;29;20033;-53
2022/07/14 10:51:22;;;;;;;2.33;1.80;;;;;;;;;;4953603;29;20031;-53
2022/07/14 10:54:07;;;;;;;3.45;1.88;;;;;;;;;;4953942;29;20031;-51
2022/07/14 10:56:34;;;;;;;2.35;1.65;;;;;;;;;;4954074;29;20027;-55
2022/07/14 10:59:19;;;;;;;2.28;1.52;;;;;;;;;;4954045;29;20023;-52
2022/07/14 11:02:08;;;;;;;2.30;1.50;;;;;;;;;;4954439;29;20031;-53
2022/07/14 11:04:53;;;;;;;1.95;1.70;;;;;;;;;;4943711;29;20035;-51
2022/07/14 11:07:42;;;;;;;4.47;1.55;;;;;;;;;;4954379;29;20035;-54
2022/07/14 11:10:21;;;;;;;2.85;1.70;;;;;;;;;;4953477;29;20537;-55
2022/07/14 11:13:00;;;;;;;4.05;1.83;;;;;;;;;;4954016;29;20069;-53
2022/07/14 11:15:39;;;;;;;3.25;1.58;;;;;;;;;;4953805;29;20023;-54
2022/07/14 11:18:21;;;;;;;4.13;1.55;;;;;;;;;;4952126;29;20019;-55
2022/07/14 11:23:37;;;;;;;4.90;2.08;;;;;;;;;;4955384;23;20067;-52
2022/07/14 11:26:06;;;;;;;8.02;2.70;;;;;;;;;;4951304;29;20573;-56
2022/07/14 11:28:34;;;;;;;6.47;2.50;;;;;;;;;;4952260;29;20026;-50
2022/07/14 11:31:18;;;;;;;5.28;2.45;;;;;;;;;;4952384;29;20026;-53
2022/07/14 11:36:39;;;;;;;4.50;2.55;;;;;;;;;;4921959;29;20047;-55
2022/07/14 11:39:20;;;;;;;5.50;2.90;;;;;;;;;;4951288;29;20082;-50
2022/07/14 11:41:51;;;;;;;3.33;2.63;;;;;;;;;;4951052;29;20117;-58
2022/07/14 11:44:36;;;;;;;3.60;2.55;;;;;;;;;;4951615;29;20050;-54
2022/07/14 11:47:04;;;;;;;3.88;2.70;;;;;;;;;;4946479;29;20032;-54
2022/07/14 11:49:34;;;;;;;4.32;2.47;;;;;;;;;;4951118;29;20102;-52
2022/07/14 11:52:04;;;;;;;4.55;2.70;;;;;;;;;;4951929;28;20504;-54
2022/07/14 11:54:31;;;;;;;4.40;2.83;;;;;;;;;;4955166;29;20480;-50
2022/07/14 11:57:08;;;;;;;4.63;2.78;;;;;;;;;;4955622;29;20043;-49
2022/07/14 11:59:36;;;;;;;3.90;2.63;;;;;;;;;;4956324;29;20027;-53
2022/07/14 12:02:21;;;;;;;5.05;2.40;;;;;;;;;;4956924;29;20118;-52
2022/07/14 12:04:53;;;;;;;5.20;2.78;;;;;;;;;;4955382;29;20127;-52
2022/07/14 12:07:21;;;;;;;4.18;2.58;;;;;;;;;;4956869;29;20038;-56
2022/07/14 12:09:49;;;;;;;4.43;2.83;;;;;;;;;;4956368;29;20400;-56
2022/07/14 12:12:17;;;;;;;3.90;2.65;;;;;;;;;;4938106;29;20481;-55
2022/07/14 12:14:45;;;;;;;3.50;2.70;;;;;;;;;;4955625;29;20034;-51
2022/07/14 12:17:12;;;;;;;3.90;2.70;;;;;;;;;;4956221;29;20416;-52
2022/07/14 12:19:39;;;;;;;5.95;2.90;;;;;;;;;;4945818;29;20044;-55
2022/07/14 12:22:07;;;;;;;5.55;2.50;;;;;;;;;;4947654;29;20026;-51
2022/07/14 12:24:34;;;;;;;4.82;2.58;;;;;;;;;;4956419;29;20062;-54
2022/07/14 12:27:02;;;;;;;3.72;2.70;;;;;;;;;;4956094;29;20035;-57
2022/07/14 12:29:30;;;;;;;5.45;2.60;;;;;;;;;;4949918;29;20086;-56
2022/07/14 12:31:59;;;;;;;3.70;2.58;;;;;;;;;;4956529;29;20552;-57
2022/07/14 12:34:27;;;;;;;6.85;2.83;;;;;;;;;;4949890;29;20115;-55
2022/07/14 12:36:56;;;;;;;5.38;2.50;;;;;;;;;;4949189;29;20035;-56
2022/07/14 12:39:24;;;;;;;7.78;2.92;;;;;;;;;;4950817;29;20509;-55
2022/07/14 12:41:52;;;;;;;6.78;3.30;;;;;;;;;;4937737;29;20036;-49
2022/07/14 12:44:18;;;;;;;6.90;2.80;;;;;;;;;;4936476;29;20508;-50
2022/07/14 12:46:46;;;;;;;8.88;3.10;;;;;;;;;;4919099;29;20426;-49
2022/07/14 12:49:13;;;;;;;5.88;3.00;;;;;;;;;;4936387;29;20059;-48
2022/07/14 12:51:40;;;;;;;10.07;2.90;;;;;;;;;;4937169;29;20103;-46
2022/07/14 12:54:25;;;;;;;14.48;3.50;;;;;;;;;;4936179;29;20023;-56
2022/07/14 12:56:53;;;;;;;9.30;3.30;;;;;;;;;;4919030;29;20393;-47
2022/07/14 12:59:21;;;;;;;7.90;2.70;;;;;;;;;;4936864;29;20386;-47
2022/07/14 13:01:56;;;;;;;6.15;2.83;;;;;;;;;;4936352;29;20032;-51
2022/07/14 13:04:49;;;;;;;11.10;3.00;;;;;;;;;;4935293;29;20031;-55
2022/07/14 13:07:16;;;;;;;11.95;3.00;;;;;;;;;;4933811;29;20047;-53
2022/07/14 13:10:00;;;;;;;8.75;3.10;;;;;;;;;;4936156;29;20478;-56
2022/07/14 13:12:28;;;;;;;10.13;2.95;;;;;;;;;;4936303;29;20067;-54
2022/07/14 13:14:59;;;;;;;7.35;3.22;;;;;;;;;;4919254;29;20476;-56
2022/07/14 13:17:44;;;;;;;10.15;3.05;;;;;;;;;;4940433;29;20019;-52
2022/07/14 13:20:29;;;;;;;8.63;3.20;;;;;;;;;;4953611;29;20027;-49
2022/07/14 13:22:57;;;;;;;8.00;3.15;;;;;;;;;;4954201;29;20042;-51
2022/07/14 13:25:23;;;;;;;7.15;3.08;;;;;;;;;;4954405;29;20057;-52
2022/07/14 13:27:50;;;;;;;8.35;2.78;;;;;;;;;;4954026;29;20039;-55
2022/07/14 13:30:17;;;;;;;7.35;3.13;;;;;;;;;;4953552;29;20030;-55
2022/07/14 13:32:44;;;;;;;8.80;2.88;;;;;;;;;;4953760;29;20110;-54
2022/07/14 13:35:11;;;;;;;10.90;2.88;;;;;;;;;;4953756;29;20118;-53
2022/07/14 13:37:38;;;;;;;11.10;3.42;;;;;;;;;;4954215;29;20047;-50
2022/07/14 13:40:05;;;;;;;10.00;2.97;;;;;;;;;;4953630;29;20023;-50
2022/07/14 13:42:32;;;;;;;9.50;2.97;;;;;;;;;;4955292;29;20024;-50
2022/07/14 13:44:59;;;;;;;9.20;3.38;;;;;;;;;;4953515;29;20031;-55
2022/07/14 13:47:26;;;;;;;9.30;3.47;;;;;;;;;;4940862;29;20035;-49
2022/07/14 13:52:38;;;;;;;9.55;2.90;;;;;;;;;;4951202;29;20118;-54
2022/07/14 13:55:05;;;;;;;11.45;3.47;;;;;;;;;;4954662;29;20021;-55
2022/07/14 13:57:32;;;;;;;9.23;3.30;;;;;;;;;;4950848;29;20094;-52
2022/07/14 13:59:59;;;;;;;10.32;3.10;;;;;;;;;;4952618;29;20054;-54
2022/07/14 14:03:22;;;;;;;10.00;3.20;;;;;;;;;;4953107;29;20038;-50
2022/07/14 14:05:13;;;;;;;12.55;3.47;;;;;;;;;;4951892;29;20098;-54
2022/07/14 14:07:40;;;;;;;11.13;3.33;;;;;;;;;;4952770;29;20043;-49
2022/07/14 14:10:07;;;;;;;10.52;3.30;;;;;;;;;;4953719;29;20070;-51
2022/07/14 14:12:34;;;;;;;9.23;3.20;;;;;;;;;;4952361;29;20031;-54
2022/07/14 14:15:01;;;;;;;7.97;3.38;;;;;;;;;;4952391;29;20043;-47
2022/07/14 14:17:28;;;;;;;12.02;3.00;;;;;;;;;;4952425;29;20532;-49
2022/07/14 14:19:55;;;;;;;5.50;3.00;;;;;;;;;;4946871;29;20031;-53
2022/07/14 14:22:22;;;;;;;7.13;2.85;;;;;;;;;;4952780;29;20078;-50
2022/07/14 14:24:49;;;;;;;11.63;3.10;;;;;;;;;;4952293;29;20047;-49
2022/07/14 14:27:16;;;;;;;5.68;2.92;;;;;;;;;;4952225;29;20370;-53
2022/07/14 14:29:43;;;;;;;8.45;3.00;;;;;;;;;;4951661;29;20059;-55
2022/07/14 14:32:10;;;;;;;10.40;3.03;;;;;;;;;;4952164;29;20030;-47
2022/07/14 14:34:37;;;;;;;12.02;3.53;;;;;;;;;;4951458;29;20426;-49
2022/07/14 14:37:04;;;;;;;7.75;3.15;;;;;;;;;;4952879;29;20031;-52
2022/07/14 14:39:31;;;;;;;4.18;2.38;;;;;;;;;;4951949;29;20038;-47
2022/07/14 14:41:57;;;;;;;12.85;3.03;;;;;;;;;;4952030;29;20042;-56
2022/07/14 14:44:24;;;;;;;6.43;2.90;;;;;;;;;;4951895;29;20629;-50
2022/07/14 14:46:52;;;;;;;8.30;2.50;;;;;;;;;;4951559;29;20074;-53
2022/07/14 14:49:19;;;;;;;10.05;3.00;;;;;;;;;;4950259;29;20031;-54
2022/07/14 14:51:46;;;;;;;11.73;2.95;;;;;;;;;;4948070;29;20031;-49
2022/07/14 14:54:13;;;;;;;6.70;2.55;;;;;;;;;;4944618;29;20031;-53
2022/07/14 14:56:40;;;;;;;14.35;2.63;;;;;;;;;;4949587;29;20032;-54
2022/07/14 14:59:06;;;;;;;7.82;3.30;;;;;;;;;;4949939;29;20027;-49
2022/07/14 15:01:37;;;;;;;5.63;3.08;;;;;;;;;;4951275;29;20035;-57
2022/07/14 15:04:05;;;;;;;6.38;2.63;;;;;;;;;;4948073;29;20035;-56
2022/07/14 15:06:32;;;;;;;11.63;2.83;;;;;;;;;;4949426;29;20042;-51